Pierrepont Manor, New York
Current Conditions -  °F | °C
As of 9:56 AM on Thursday 30 Oct 2014 (Local Time) from KART Reporting Station
Overcast Overcast  
Wind Chill:   Ceiling: 3400
Heat Index:   Visibility: 10mi
Dew Point:   Wind: 5mph
Humidity: 63%   Direction: 20°NNE
Pressure: 30.03"   Gusts: NA
Location:  43.73°N, 76.06°W
Report Text: KART 301356Z AUTO 02004KT 10SM OVC034 07/01 A3003 RMK AO2 SLP172 T00720006
Loading
Personal Weather Stations






























Interactive Weather Map
Tropical Storm Tracking
New forecast layout! Learn more

10-Day Weather Forecast

Advertisements
Track Severe Weather on mobile